sim
Sign-in with your pilot id or email,
or register
Callsign
Passwort

Schedule Details

Flight Number: DLH2063 (2)
Departure: Hamburg Airport (EDDH) at 08:45
Arrival: Munich Airport (EDDM) at 10:00
Route: Lufthansa Passenger Schedule. Enter filed route here before submitting Pirep.

Weather Information
Getting current METAR information for EDDH 210350Z 06003KT 8000 2400NW R15/1400D BCFG NSC 08/08 Q1019 NOSIG
Getting current METAR information for EDDM 210350Z VRB01KT CAVOK 07/07 Q1016 NOSIG

Schedule Frequency

Route Map